Butes — A8UR6 — position and weather

sailwx.info

Track history (hours):
 
Tides and Currents Weather Stations Pressure Air Temp Water Temp Dewpoint Dewpoint Depression Visibility Wind Speed Wind Dir Waves Ship Positions

Butes

Last reported at 2017-Mar-21 07:33 UTC. Time now 2017-Mar-23 18:31 UTC.
Position N 39°26' W 009°46'.

Length 90 m; draft 3.4 m.

Type: Cargo ship. MMSI: 636091937.

Date/timePositionNaut miles runAvg speedWind from/ knotsBaromVisibWave heightAir tempDewpointWater temp
2017-Mar-21 07:33N 39°26' W 009°46'6 5.9
2017-Mar-21 06:33N 39°20' W 009°47'7 7.3
2017-Mar-21 05:33N 39°13' W 009°48'8 7.5
2017-Mar-21 04:33N 39°05' W 009°49'8 7.5
2017-Mar-21 03:33N 38°58' W 009°50'8 7.6
2017-Mar-21 02:33N 38°50' W 009°50'8 7.6
2017-Mar-21 01:33N 38°42' W 009°50'7 7.3
2017-Mar-21 00:33N 38°35' W 009°47'7 7.2
2017-Mar-20 23:34N 38°29' W 009°42'7 6.9
2017-Mar-20 22:33N 38°23' W 009°38'7 6.8
2017-Mar-20 21:33N 38°17' W 009°33'7 6.7
2017-Mar-20 20:33N 38°11' W 009°29'6 6.5
2017-Mar-20 19:33N 38°06' W 009°25'7 6.5
2017-Mar-20 18:33N 38°00' W 009°21'6 6.2
2017-Mar-20 17:33N 37°55' W 009°17'5 4.8
2017-Mar-20 16:34N 37°51' W 009°14'2 2.1
2017-Mar-20 15:34N 37°53' W 009°15'0 0.4
2017-Mar-20 14:33N 37°52' W 009°16'3 3.0
2017-Mar-20 13:33N 37°49' W 009°15'3 3.1
2017-Mar-20 12:33N 37°46' W 009°14'3 3.0
2017-Mar-20 11:33N 37°43' W 009°14'3 3.3
2017-Mar-20 10:33N 37°40' W 009°13'4 3.3
2017-Mar-20 09:17N 37°36' W 009°12'5 0.7
2017-Mar-20 01:32N 37°41' W 009°15'6 6.1
2017-Mar-20 00:33N 37°46' W 009°16'6 6.3
2017-Mar-19 23:33N 37°53' W 009°18'7 6.6
2017-Mar-19 22:33N 37°59' W 009°19'6 6.4
2017-Mar-19 21:33N 38°06' W 009°19'7 6.5
2017-Mar-19 20:33N 38°12' W 009°20'2 2.4
2017-Mar-19 19:33N 38°14' W 009°21'6 6.3
2017-Mar-19 18:33N 38°21' W 009°23'9 9.2
2017-Mar-19 17:33N 38°30' W 009°25'4 4.4
2017-Mar-19 16:33N 38°25' W 009°27'6 6.5
2017-Mar-19 15:33N 38°19' W 009°29'7 6.6
2017-Mar-19 14:33N 38°12' W 009°30'7 7.2
2017-Mar-19 13:33N 38°05' W 009°32'7 7.2
2017-Mar-19 12:34N 37°58' W 009°33'7 7.3
2017-Mar-19 11:33N 37°51' W 009°34'7 7.2
2017-Mar-19 10:33N 37°44' W 009°36'7 7.3
2017-Mar-19 09:33N 37°37' W 009°37'8 7.7
2017-Mar-19 08:34N 37°29' W 009°38'8 7.7
2017-Mar-19 07:33N 37°21' W 009°40'7 7.4
2017-Mar-19 06:33N 37°14' W 009°42'7 7.0
2017-Mar-19 05:33N 37°07' W 009°43'7 7.0
2017-Mar-19 04:30N 37°00' W 009°45'7 7.2
2017-Mar-19 03:33N 36°54' W 009°47'7 6.8
2017-Mar-19 02:28N 36°46' W 009°46'8 6.9
2017-Mar-19 01:16N 36°38' W 009°44'5 6.8
2017-Mar-19 00:33N 36°33' W 009°42'6 6.2
2017-Mar-18 23:33N 36°27' W 009°41'30 6.9
2017-Mar-18 19:10N 35°59' W 009°29'  
2017-Mar-12 17:33N 38°55' W 010°06'10 9.8
2017-Mar-12 16:33N 39°05' W 010°06'  
Track history (hours):
 
Tides and Currents Weather Stations Pressure Air Temp Water Temp Dewpoint Dewpoint Depression Visibility Wind Speed Wind Dir Waves Ship Positions

Butes

Last reported at 2017-Mar-21 07:33 UTC. Time now 2017-Mar-23 18:31 UTC.
Position N 39°26' W 009°46'.

Length 90 m; draft 3.4 m.

Type: Cargo ship. MMSI: 636091937.

Date/timePositionNaut miles runAvg speedWind from/ knotsBaromVisibWave heightAir tempDewpointWater temp
2017-Mar-21 07:33N 39°26' W 009°46'6 5.9
2017-Mar-21 06:33N 39°20' W 009°47'7 7.3
2017-Mar-21 05:33N 39°13' W 009°48'8 7.5
2017-Mar-21 04:33N 39°05' W 009°49'8 7.5
2017-Mar-21 03:33N 38°58' W 009°50'8 7.6
2017-Mar-21 02:33N 38°50' W 009°50'8 7.6
2017-Mar-21 01:33N 38°42' W 009°50'7 7.3
2017-Mar-21 00:33N 38°35' W 009°47'7 7.2
2017-Mar-20 23:34N 38°29' W 009°42'7 6.9
2017-Mar-20 22:33N 38°23' W 009°38'7 6.8
2017-Mar-20 21:33N 38°17' W 009°33'7 6.7
2017-Mar-20 20:33N 38°11' W 009°29'6 6.5
2017-Mar-20 19:33N 38°06' W 009°25'7 6.5
2017-Mar-20 18:33N 38°00' W 009°21'6 6.2
2017-Mar-20 17:33N 37°55' W 009°17'5 4.8
2017-Mar-20 16:34N 37°51' W 009°14'2 2.1
2017-Mar-20 15:34N 37°53' W 009°15'0 0.4
2017-Mar-20 14:33N 37°52' W 009°16'3 3.0
2017-Mar-20 13:33N 37°49' W 009°15'3 3.1
2017-Mar-20 12:33N 37°46' W 009°14'3 3.0
2017-Mar-20 11:33N 37°43' W 009°14'3 3.3
2017-Mar-20 10:33N 37°40' W 009°13'4 3.3
2017-Mar-20 09:17N 37°36' W 009°12'5 0.7
2017-Mar-20 01:32N 37°41' W 009°15'6 6.1
2017-Mar-20 00:33N 37°46' W 009°16'6 6.3
2017-Mar-19 23:33N 37°53' W 009°18'7 6.6
2017-Mar-19 22:33N 37°59' W 009°19'6 6.4
2017-Mar-19 21:33N 38°06' W 009°19'7 6.5
2017-Mar-19 20:33N 38°12' W 009°20'2 2.4
2017-Mar-19 19:33N 38°14' W 009°21'6 6.3
2017-Mar-19 18:33N 38°21' W 009°23'9 9.2
2017-Mar-19 17:33N 38°30' W 009°25'4 4.4
2017-Mar-19 16:33N 38°25' W 009°27'6 6.5
2017-Mar-19 15:33N 38°19' W 009°29'7 6.6
2017-Mar-19 14:33N 38°12' W 009°30'7 7.2
2017-Mar-19 13:33N 38°05' W 009°32'7 7.2
2017-Mar-19 12:34N 37°58' W 009°33'7 7.3
2017-Mar-19 11:33N 37°51' W 009°34'7 7.2
2017-Mar-19 10:33N 37°44' W 009°36'7 7.3
2017-Mar-19 09:33N 37°37' W 009°37'8 7.7
2017-Mar-19 08:34N 37°29' W 009°38'8 7.7
2017-Mar-19 07:33N 37°21' W 009°40'7 7.4
2017-Mar-19 06:33N 37°14' W 009°42'7 7.0
2017-Mar-19 05:33N 37°07' W 009°43'7 7.0
2017-Mar-19 04:30N 37°00' W 009°45'7 7.2
2017-Mar-19 03:33N 36°54' W 009°47'7 6.8
2017-Mar-19 02:28N 36°46' W 009°46'8 6.9
2017-Mar-19 01:16N 36°38' W 009°44'5 6.8
2017-Mar-19 00:33N 36°33' W 009°42'6 6.2
2017-Mar-18 23:33N 36°27' W 009°41'30 6.9
2017-Mar-18 19:10N 35°59' W 009°29'  
2017-Mar-12 17:33N 38°55' W 010°06'10 9.8
2017-Mar-12 16:33N 39°05' W 010°06'  

Dump ship's entire track history